createdAt,value
2022-10-05T00:02:24.381Z,8.15
2022-10-05T00:04:57.194Z,7.97
2022-10-05T00:07:25.079Z,8.98
2022-10-05T00:09:59.792Z,5.35
2022-10-05T00:12:29.981Z,5.85
2022-10-05T00:15:00.806Z,7.13
2022-10-05T00:17:30.211Z,5.22
2022-10-05T00:19:57.334Z,6.03
2022-10-05T00:22:34.209Z,5.38
2022-10-05T00:25:03.266Z,5.57
2022-10-05T00:27:36.850Z,6.53
2022-10-05T00:30:19.170Z,6.00
2022-10-05T00:32:47.089Z,7.05
2022-10-05T00:35:15.966Z,6.45
2022-10-05T00:37:43.804Z,11.75
2022-10-05T00:40:25.561Z,9.50
2022-10-05T00:43:00.009Z,7.97
2022-10-05T00:45:36.022Z,8.07
2022-10-05T00:48:14.847Z,8.10
2022-10-05T00:50:53.744Z,12.25
2022-10-05T00:53:46.987Z,8.02
2022-10-05T00:56:40.225Z,8.95
2022-10-05T00:59:24.878Z,8.13
2022-10-05T01:02:06.961Z,8.40
2022-10-05T01:04:41.340Z,8.13
2022-10-05T01:07:18.107Z,8.00
2022-10-05T01:10:02.835Z,7.18
2022-10-05T01:13:07.307Z,11.30
2022-10-05T01:15:47.205Z,8.20
2022-10-05T01:18:28.820Z,9.43
2022-10-05T01:21:00.216Z,11.38
2022-10-05T01:23:34.882Z,9.68
2022-10-05T01:26:38.236Z,6.28
2022-10-05T01:29:15.623Z,6.60
2022-10-05T01:32:08.587Z,5.47
2022-10-05T01:34:50.437Z,9.65
2022-10-05T01:37:23.464Z,4.50
2022-10-05T01:39:53.075Z,6.47
2022-10-05T01:42:53.923Z,7.55
2022-10-05T01:45:39.317Z,8.88
2022-10-05T01:48:16.837Z,7.00
2022-10-05T01:51:14.437Z,10.40
2022-10-05T01:54:04.910Z,8.90
2022-10-05T01:56:43.578Z,8.77
2022-10-05T01:59:19.714Z,9.75
2022-10-05T02:02:02.076Z,9.68
2022-10-05T02:07:53.269Z,13.13
2022-10-05T02:10:36.358Z,13.35
2022-10-05T02:13:18.713Z,10.52
2022-10-05T02:16:00.577Z,9.13
2022-10-05T02:19:08.101Z,9.00
2022-10-05T02:21:36.621Z,7.55
2022-10-05T02:24:11.357Z,9.40
2022-10-05T02:26:40.599Z,9.35
2022-10-05T02:29:11.535Z,8.10
2022-10-05T02:31:48.965Z,6.20
2022-10-05T02:34:36.014Z,6.03
2022-10-05T02:37:18.112Z,4.90
2022-10-05T02:40:09.742Z,5.70
2022-10-05T02:42:36.568Z,7.22
2022-10-05T02:45:16.974Z,5.45
2022-10-05T02:48:28.881Z,7.07
2022-10-05T02:51:08.601Z,6.68
2022-10-05T02:53:49.822Z,6.13
2022-10-05T02:56:26.419Z,8.77
2022-10-05T02:59:31.368Z,7.50
2022-10-05T03:02:12.589Z,11.02
2022-10-05T03:04:51.114Z,10.13
2022-10-05T03:07:36.333Z,8.85
2022-10-05T03:10:03.187Z,9.20
2022-10-05T03:12:42.241Z,8.57
2022-10-05T03:15:09.254Z,9.10
2022-10-05T03:17:48.850Z,14.38
2022-10-05T03:20:40.221Z,5.93
2022-10-05T03:23:19.852Z,10.27
2022-10-05T03:26:06.175Z,11.82
2022-10-05T03:28:53.520Z,11.65
2022-10-05T03:31:46.806Z,11.98
2022-10-05T03:34:32.345Z,15.10
2022-10-05T03:37:09.348Z,16.80
2022-10-05T03:39:49.366Z,15.93
2022-10-05T03:42:48.626Z,13.20
2022-10-05T03:45:36.832Z,13.57
2022-10-05T03:48:16.218Z,11.48
2022-10-05T03:50:51.871Z,12.40
2022-10-05T03:53:26.051Z,11.55
2022-10-05T03:56:13.183Z,10.77
2022-10-05T03:58:50.132Z,9.07
2022-10-05T04:01:25.544Z,11.90
2022-10-05T04:04:04.462Z,12.73
2022-10-05T04:06:38.371Z,8.38
2022-10-05T04:09:17.111Z,9.63
2022-10-05T04:11:59.018Z,11.55
2022-10-05T04:14:28.223Z,11.38
2022-10-05T04:16:59.702Z,8.32
2022-10-05T04:19:45.755Z,9.82
2022-10-05T04:22:16.055Z,9.57
2022-10-05T04:25:15.657Z,10.90
2022-10-05T04:27:52.949Z,10.95
2022-10-05T04:30:22.354Z,11.82
2022-10-05T04:32:55.693Z,9.45
2022-10-05T04:35:45.243Z,13.20
2022-10-05T04:38:23.792Z,12.18
2022-10-05T04:41:16.965Z,15.35
2022-10-05T04:43:55.574Z,12.35
2022-10-05T04:46:58.427Z,14.75
2022-10-05T04:49:52.789Z,14.23
2022-10-05T04:52:38.639Z,11.02
2022-10-05T04:55:17.256Z,16.92
2022-10-05T04:58:09.027Z,14.50
2022-10-05T05:00:45.638Z,13.40
2022-10-05T05:03:24.635Z,14.52
2022-10-05T05:06:25.060Z,9.63
2022-10-05T05:09:13.270Z,13.32
2022-10-05T05:11:52.172Z,38.03
2022-10-05T05:14:31.045Z,41.25
2022-10-05T05:17:35.066Z,20.05
2022-10-05T05:20:08.070Z,13.27
2022-10-05T05:22:50.957Z,15.05
2022-10-05T05:25:36.015Z,10.50
2022-10-05T05:28:23.448Z,10.23
2022-10-05T05:31:17.619Z,10.90
2022-10-05T05:33:56.526Z,13.32
2022-10-05T05:36:35.433Z,11.77
2022-10-05T05:39:08.081Z,25.55
2022-10-05T05:41:40.317Z,46.50
2022-10-05T05:44:10.111Z,25.90
2022-10-05T05:47:04.560Z,23.73
2022-10-05T05:49:35.095Z,18.70
2022-10-05T05:52:10.724Z,22.00
2022-10-05T05:54:58.059Z,18.35
2022-10-05T05:57:35.087Z,21.08
2022-10-05T06:00:08.778Z,21.92
2022-10-05T06:02:43.393Z,23.98
2022-10-05T06:05:29.687Z,22.45
2022-10-05T06:07:58.803Z,26.00
2022-10-05T06:10:49.583Z,13.95
2022-10-05T06:13:25.882Z,8.82
2022-10-05T06:16:14.985Z,8.85
2022-10-05T06:18:45.651Z,8.82
2022-10-05T06:21:52.677Z,9.40
2022-10-05T06:24:31.749Z,10.15
2022-10-05T06:27:25.226Z,6.47
2022-10-05T06:30:04.909Z,6.15
2022-10-05T06:32:57.420Z,8.27
2022-10-05T06:35:44.882Z,4.45
2022-10-05T06:38:20.818Z,4.82
2022-10-05T06:41:06.521Z,6.20
2022-10-05T06:43:53.733Z,7.25
2022-10-05T06:46:53.251Z,8.68
2022-10-05T06:49:25.056Z,6.82
2022-10-05T06:51:55.090Z,10.02
2022-10-05T06:54:43.798Z,7.75
2022-10-05T06:57:49.099Z,5.78
2022-10-05T07:00:16.076Z,4.18
2022-10-05T07:03:03.660Z,5.13
2022-10-05T07:06:01.758Z,5.75
2022-10-05T07:08:37.991Z,4.40
2022-10-05T07:11:10.675Z,4.28
2022-10-05T07:13:48.158Z,7.28
2022-10-05T07:16:32.439Z,6.85
2022-10-05T07:19:14.128Z,5.25
2022-10-05T07:22:20.316Z,7.03
2022-10-05T07:25:13.045Z,7.18
2022-10-05T07:27:56.810Z,10.40
2022-10-05T07:30:24.459Z,5.57
2022-10-05T07:33:16.586Z,11.90
2022-10-05T07:36:07.664Z,7.13
2022-10-05T07:39:07.135Z,8.27
2022-10-05T07:41:47.950Z,5.50
2022-10-05T07:44:53.040Z,6.95
2022-10-05T07:47:27.759Z,7.05
2022-10-05T07:49:58.830Z,13.02
2022-10-05T07:52:34.699Z,6.55
2022-10-05T07:55:16.550Z,8.48
2022-10-05T07:57:49.607Z,6.82
2022-10-05T08:00:20.889Z,5.95
2022-10-05T08:02:49.628Z,8.85
2022-10-05T08:05:27.521Z,6.18
2022-10-05T08:08:19.581Z,5.68
2022-10-05T08:11:14.398Z,10.35
2022-10-05T08:14:00.402Z,6.18
2022-10-05T08:16:33.728Z,5.57
2022-10-05T08:19:16.489Z,6.05
2022-10-05T08:21:59.463Z,5.47
2022-10-05T08:24:37.957Z,6.95
2022-10-05T08:27:13.476Z,6.15
2022-10-05T08:30:01.421Z,3.55
2022-10-05T08:32:31.042Z,4.25
2022-10-05T08:35:28.988Z,6.18
2022-10-05T08:37:57.015Z,4.68
2022-10-05T08:40:32.772Z,4.28
2022-10-05T08:43:20.986Z,5.25
2022-10-05T08:45:57.405Z,5.53
2022-10-05T08:48:48.586Z,3.50
2022-10-05T08:51:57.046Z,5.60
2022-10-05T08:54:44.938Z,5.95
2022-10-05T08:57:46.623Z,4.88
2022-10-05T09:00:21.125Z,3.90
2022-10-05T09:03:05.789Z,8.43
2022-10-05T09:05:51.266Z,10.63
2022-10-05T09:08:24.348Z,9.35
2022-10-05T09:11:17.253Z,7.43
2022-10-05T09:14:11.943Z,7.10
2022-10-05T09:17:37.132Z,6.45
2022-10-05T09:20:24.635Z,6.60
2022-10-05T09:23:25.712Z,4.65
2022-10-05T09:26:20.775Z,6.20
2022-10-05T09:29:15.859Z,6.03
2022-10-05T09:31:51.587Z,5.72
2022-10-05T09:34:21.470Z,6.63
2022-10-05T09:36:48.333Z,4.30
2022-10-05T09:39:21.375Z,6.55
2022-10-05T09:42:10.035Z,6.20
2022-10-05T09:44:55.397Z,6.72
2022-10-05T09:47:46.318Z,12.95
2022-10-05T09:50:49.680Z,12.30
2022-10-05T09:55:58.107Z,28.88
2022-10-05T09:58:57.447Z,27.95
2022-10-05T10:02:15.392Z,49.55
2022-10-05T10:05:05.933Z,50.25
2022-10-05T10:08:01.329Z,43.63
2022-10-05T10:10:44.049Z,21.95
2022-10-05T10:13:35.271Z,23.20
2022-10-05T10:16:02.253Z,14.32
2022-10-05T10:18:51.261Z,9.77
2022-10-05T10:22:01.829Z,26.95
2022-10-05T10:24:43.848Z,20.08
2022-10-05T10:27:27.559Z,9.80
2022-10-05T10:30:19.157Z,4.63
2022-10-05T10:33:02.757Z,9.68
2022-10-05T10:35:32.689Z,16.48
2022-10-05T10:38:20.492Z,5.07
2022-10-05T10:41:24.506Z,2.22
2022-10-05T10:44:11.147Z,3.03
2022-10-05T10:47:08.881Z,4.75
2022-10-05T10:50:05.058Z,15.90
2022-10-05T10:52:35.165Z,9.52
2022-10-05T10:55:19.870Z,7.68
2022-10-05T10:58:01.399Z,7.00
2022-10-05T11:01:09.630Z,3.28
2022-10-05T11:03:51.779Z,2.17
2022-10-05T11:07:04.873Z,4.38
2022-10-05T11:10:16.000Z,5.00
2022-10-05T11:13:03.508Z,6.80
2022-10-05T11:15:45.662Z,3.33
2022-10-05T11:18:22.563Z,7.63
2022-10-05T11:21:05.053Z,9.23
2022-10-05T11:23:40.543Z,3.42
2022-10-05T11:26:20.084Z,2.47
2022-10-05T11:29:08.414Z,2.78
2022-10-05T11:32:21.002Z,1.98
2022-10-05T11:35:12.527Z,4.88
2022-10-05T11:37:55.145Z,2.80
2022-10-05T11:40:37.039Z,3.35
2022-10-05T11:43:42.450Z,2.13
2022-10-05T11:46:50.591Z,2.70
2022-10-05T11:49:51.606Z,2.90
2022-10-05T11:52:37.142Z,1.95
2022-10-05T11:55:26.474Z,2.45
2022-10-05T11:58:18.068Z,3.00
2022-10-05T12:00:55.248Z,2.58
2022-10-05T12:03:48.543Z,4.22
2022-10-05T12:06:45.965Z,4.25
2022-10-05T12:09:21.779Z,3.60
2022-10-05T12:12:04.092Z,3.22
2022-10-05T12:14:33.533Z,6.65
2022-10-05T12:17:06.527Z,5.85
2022-10-05T12:19:55.457Z,5.07
2022-10-05T12:22:45.741Z,2.00
2022-10-05T12:25:32.616Z,2.47
2022-10-05T12:28:05.937Z,5.68
2022-10-05T12:30:57.777Z,2.47
2022-10-05T12:33:37.829Z,3.95
2022-10-05T12:36:35.902Z,2.85
2022-10-05T12:39:26.217Z,2.13
2022-10-05T12:42:11.817Z,1.70
2022-10-05T12:45:11.256Z,1.70
2022-10-05T12:47:59.232Z,3.30
2022-10-05T12:50:35.227Z,3.58
2022-10-05T12:53:08.495Z,2.83
2022-10-05T12:55:57.679Z,3.40
2022-10-05T12:58:33.699Z,2.45
2022-10-05T13:01:06.657Z,2.17
2022-10-05T13:03:52.723Z,2.72
2022-10-05T13:06:25.603Z,1.45
2022-10-05T13:09:03.093Z,2.58
2022-10-05T13:11:38.809Z,1.67
2022-10-05T13:14:36.110Z,1.20
2022-10-05T13:17:33.489Z,5.88
2022-10-05T13:20:12.295Z,2.63
2022-10-05T13:22:54.078Z,5.80
2022-10-05T13:25:29.391Z,2.13
2022-10-05T13:28:15.663Z,3.45
2022-10-05T13:30:56.700Z,1.65
2022-10-05T13:33:43.362Z,2.72
2022-10-05T13:36:38.923Z,4.70
2022-10-05T13:39:20.249Z,3.33
2022-10-05T13:42:28.678Z,4.63
2022-10-05T13:45:19.011Z,3.63
2022-10-05T13:48:01.116Z,2.45
2022-10-05T13:50:35.078Z,4.97
2022-10-05T13:53:27.591Z,3.28
2022-10-05T13:56:08.445Z,4.15
2022-10-05T13:59:11.935Z,1.92
2022-10-05T14:02:02.239Z,2.35
2022-10-05T14:04:43.224Z,2.58
2022-10-05T14:07:47.997Z,3.45
2022-10-05T14:10:28.902Z,2.40
2022-10-05T14:12:55.967Z,5.68
2022-10-05T14:15:28.716Z,5.18
2022-10-05T14:17:55.649Z,4.38
2022-10-05T14:20:27.334Z,4.00
2022-10-05T14:23:11.131Z,4.47
2022-10-05T14:25:53.835Z,2.75
2022-10-05T14:31:15.138Z,3.55
2022-10-05T14:33:42.627Z,3.42
2022-10-05T14:36:22.421Z,3.30
2022-10-05T14:38:56.970Z,2.70
2022-10-05T14:41:27.440Z,5.43
2022-10-05T14:44:09.476Z,6.68
2022-10-05T14:46:38.562Z,4.10
2022-10-05T14:49:12.697Z,5.38
2022-10-05T14:51:42.238Z,4.53
2022-10-05T14:54:21.282Z,5.22
2022-10-05T14:57:25.373Z,5.82
2022-10-05T15:00:04.220Z,6.20
2022-10-05T15:02:48.003Z,4.40
2022-10-05T15:05:25.160Z,7.35
2022-10-05T15:07:57.561Z,6.30
2022-10-05T15:10:29.616Z,5.47
2022-10-05T15:13:08.057Z,4.88
2022-10-05T15:16:16.929Z,5.53
2022-10-05T15:19:16.111Z,4.88
2022-10-05T15:21:55.355Z,6.00
2022-10-05T15:24:26.540Z,9.35
2022-10-05T15:27:04.429Z,6.63
2022-10-05T15:29:57.785Z,9.02
2022-10-05T15:32:43.183Z,8.45
2022-10-05T15:35:38.510Z,8.25
2022-10-05T15:38:11.981Z,8.85
2022-10-05T15:41:00.037Z,8.07
2022-10-05T15:43:39.143Z,5.68
2022-10-05T15:46:15.506Z,9.98
2022-10-05T15:48:58.930Z,10.13
2022-10-05T15:51:30.766Z,8.73
2022-10-05T15:54:22.401Z,10.63
2022-10-05T15:57:08.278Z,11.95
2022-10-05T15:59:52.026Z,17.25
2022-10-05T16:02:26.201Z,21.08
2022-10-05T16:05:47.163Z,21.33
2022-10-05T16:08:56.688Z,26.05
2022-10-05T16:11:51.719Z,25.23
2022-10-05T16:14:43.410Z,20.67
2022-10-05T16:17:36.036Z,25.95
2022-10-05T16:20:24.046Z,17.77
2022-10-05T16:23:17.765Z,15.25
2022-10-05T16:26:09.167Z,13.98
2022-10-05T16:28:45.165Z,17.88
2022-10-05T16:31:31.181Z,18.13
2022-10-05T16:34:31.511Z,25.35
2022-10-05T16:37:04.803Z,25.10
2022-10-05T16:40:01.482Z,27.02
2022-10-05T16:42:50.359Z,20.35
2022-10-05T16:45:45.346Z,19.35
2022-10-05T16:48:26.858Z,26.65
2022-10-05T16:51:03.713Z,18.17
2022-10-05T16:54:02.136Z,15.65
2022-10-05T16:56:39.084Z,17.33
2022-10-05T16:59:36.520Z,16.13
2022-10-05T17:02:22.847Z,14.55
2022-10-05T17:05:04.735Z,19.42
2022-10-05T17:07:42.030Z,16.88
2022-10-05T17:10:37.269Z,12.75
2022-10-05T17:13:32.257Z,13.48
2022-10-05T17:16:26.609Z,14.85
2022-10-05T17:18:56.307Z,14.43
2022-10-05T17:21:44.973Z,13.43
2022-10-05T17:24:11.807Z,18.13
2022-10-05T17:27:17.905Z,15.07
2022-10-05T17:30:15.215Z,18.13
2022-10-05T17:33:14.212Z,18.23
2022-10-05T17:35:55.242Z,14.43
2022-10-05T17:38:24.288Z,17.73
2022-10-05T17:41:00.461Z,16.10
2022-10-05T17:43:32.534Z,15.32
2022-10-05T17:46:01.884Z,18.73
2022-10-05T17:48:50.105Z,18.95
2022-10-05T17:51:55.776Z,17.23
2022-10-05T17:55:03.330Z,18.25
2022-10-05T17:57:30.610Z,18.45
2022-10-05T18:00:02.555Z,17.67
2022-10-05T18:02:36.181Z,22.25
2022-10-05T18:05:06.788Z,23.60
2022-10-05T18:07:35.747Z,19.95
2022-10-05T18:10:12.067Z,19.58
2022-10-05T18:12:41.607Z,19.65
2022-10-05T18:15:08.490Z,20.48
2022-10-05T18:17:57.676Z,21.73
2022-10-05T18:20:25.729Z,23.60
2022-10-05T18:23:14.836Z,21.70
2022-10-05T18:25:50.847Z,20.75
2022-10-05T18:28:43.547Z,17.98
2022-10-05T18:31:29.357Z,24.65
2022-10-05T18:34:23.609Z,20.58
2022-10-05T18:36:53.276Z,21.27
2022-10-05T18:39:31.952Z,20.73
2022-10-05T18:42:07.987Z,20.27
2022-10-05T18:44:48.554Z,19.80
2022-10-05T18:47:22.163Z,21.65
2022-10-05T18:49:58.511Z,18.92
2022-10-05T18:52:45.059Z,19.63
2022-10-05T18:55:28.819Z,18.35
2022-10-05T18:58:14.853Z,18.50
2022-10-05T19:01:09.142Z,19.02
2022-10-05T19:03:42.197Z,18.38
2022-10-05T19:06:26.979Z,20.95
2022-10-05T19:08:59.180Z,18.95
2022-10-05T19:11:55.937Z,18.73
2022-10-05T19:14:40.052Z,16.88
2022-10-05T19:17:29.796Z,22.15
2022-10-05T19:19:56.679Z,14.40
2022-10-05T19:22:45.982Z,39.92
2022-10-05T19:25:36.686Z,20.30
2022-10-05T19:28:17.340Z,24.67
2022-10-05T19:30:49.847Z,19.15
2022-10-05T19:33:52.201Z,17.20
2022-10-05T19:36:25.823Z,17.52
2022-10-05T19:39:24.974Z,16.73
2022-10-05T19:42:33.015Z,15.30
2022-10-05T19:45:18.983Z,15.05
2022-10-05T19:48:15.762Z,11.93
2022-10-05T19:50:54.800Z,11.30
2022-10-05T19:53:26.280Z,16.63
2022-10-05T19:55:55.572Z,22.02
2022-10-05T19:58:28.485Z,15.70
2022-10-05T20:00:58.315Z,16.92
2022-10-05T20:03:30.781Z,16.67
2022-10-05T20:05:59.998Z,17.05
2022-10-05T20:08:36.311Z,15.48
2022-10-05T20:11:15.073Z,15.95
2022-10-05T20:13:55.045Z,12.60
2022-10-05T20:16:51.179Z,11.98
2022-10-05T20:19:51.412Z,13.52
2022-10-05T20:22:30.117Z,13.60
2022-10-05T20:25:01.237Z,11.80
2022-10-05T20:27:40.090Z,12.98
2022-10-05T20:30:10.197Z,23.95
2022-10-05T20:32:37.059Z,17.35
2022-10-05T20:35:06.808Z,24.77
2022-10-05T20:37:33.913Z,21.67
2022-10-05T20:40:00.774Z,21.13
2022-10-05T20:42:27.651Z,20.50
2022-10-05T20:44:57.047Z,21.75
2022-10-05T20:47:25.710Z,17.60
2022-10-05T20:49:54.628Z,20.63
2022-10-05T20:52:23.234Z,16.10
2022-10-05T20:54:53.872Z,19.42
2022-10-05T20:57:21.370Z,13.27
2022-10-05T20:59:48.428Z,15.85
2022-10-05T21:02:15.374Z,15.48
2022-10-05T21:04:47.555Z,15.23
2022-10-05T21:07:16.764Z,18.35
2022-10-05T21:09:46.587Z,13.68
2022-10-05T21:12:14.194Z,13.75
2022-10-05T21:14:41.082Z,15.60
2022-10-05T21:17:08.655Z,15.82
2022-10-05T21:19:39.485Z,16.20
2022-10-05T21:22:08.651Z,29.40
2022-10-05T21:24:40.909Z,24.70
2022-10-05T21:27:08.612Z,24.67
2022-10-05T21:29:36.551Z,30.00
2022-10-05T21:32:08.482Z,27.13
2022-10-05T21:34:35.554Z,19.42
2022-10-05T21:37:02.488Z,23.02
2022-10-05T21:39:29.391Z,20.33
2022-10-05T21:41:56.603Z,15.70
2022-10-05T21:44:23.564Z,16.33
2022-10-05T21:46:50.670Z,22.65
2022-10-05T21:49:19.861Z,35.08
2022-10-05T21:51:47.820Z,33.28
2022-10-05T21:54:18.444Z,28.05
2022-10-05T21:56:49.792Z,36.42
2022-10-05T21:59:18.980Z,26.17
2022-10-05T22:01:46.320Z,28.35
2022-10-05T22:04:13.810Z,19.52
2022-10-05T22:06:40.871Z,23.92
2022-10-05T22:09:07.875Z,18.23
2022-10-05T22:11:34.873Z,21.25
2022-10-05T22:14:02.925Z,26.35
2022-10-05T22:16:32.939Z,31.08
2022-10-05T22:19:04.929Z,27.48
2022-10-05T22:21:34.136Z,22.85
2022-10-05T22:24:02.789Z,22.85
2022-10-05T22:26:30.540Z,20.30
2022-10-05T22:28:57.706Z,31.52
2022-10-05T22:31:24.815Z,21.85
2022-10-05T22:33:52.302Z,20.85
2022-10-05T22:36:20.059Z,14.88
2022-10-05T22:38:47.739Z,12.95
2022-10-05T22:41:16.570Z,12.43
2022-10-05T22:43:43.523Z,24.58
2022-10-05T22:46:12.293Z,18.98
2022-10-05T22:48:39.970Z,13.75
2022-10-05T22:51:07.721Z,16.48
2022-10-05T22:53:35.103Z,19.42
2022-10-05T22:56:10.255Z,38.85
2022-10-05T22:58:37.569Z,29.83
2022-10-05T23:01:07.471Z,26.08
2022-10-05T23:03:35.116Z,23.05
2022-10-05T23:06:05.267Z,19.17
2022-10-05T23:08:33.440Z,24.33
2022-10-05T23:11:07.023Z,32.83
2022-10-05T23:13:34.273Z,25.02
2022-10-05T23:16:08.079Z,22.17
2022-10-05T23:18:35.442Z,23.65
2022-10-05T23:21:02.642Z,18.55
2022-10-05T23:23:29.603Z,23.05
2022-10-05T23:26:00.568Z,21.30
2022-10-05T23:28:29.000Z,23.15
2022-10-05T23:31:05.161Z,22.02
2022-10-05T23:33:32.341Z,22.35
2022-10-05T23:36:04.914Z,22.88
2022-10-05T23:38:32.555Z,25.05
2022-10-05T23:40:59.942Z,20.25
2022-10-05T23:43:27.551Z,20.77
2022-10-05T23:45:55.506Z,25.13
2022-10-05T23:48:23.007Z,21.70
2022-10-05T23:50:50.876Z,17.05
2022-10-05T23:53:18.433Z,19.70
2022-10-05T23:55:45.752Z,23.42
2022-10-05T23:58:12.798Z,20.27
